Detall de PIREP

Printer-friendly versionPDF version

[2013/02/15 08:27:00]
Flight IATA:CT0001
Pilot Number:041
Company ICAO:CAT
Aircraft Type:A320/E
PAX:98
Departing Airport: LEGE
Destination Airport: LELC
Alternate Airport:LEMG
Online: VATSIM
Route:DCT MAMUK H110 SEROX A34 ALT DCT
Flight Level:F190
No Slew and time accel
No pause
Crash detect
Detect pilot in Cockpit between each 30 and 45 minutes
08:27 Zero fuel Weight: 134050 Lbs, Fuel Weight: 12312 Lbs
08:27 VATSIM:LEGE 150800Z 00000KT 9999 FEW020 BKN035 04/04 Q1019
08:27 VATSIM:LELC 150800Z 26001KT CAVOK 08/05 Q1021 NOSIG
08:27 VOICE CATALONIAN
08:34 Parking Brakes off
08:37 Take-off
08:37 Take off Weight: 145660 Lbs
08:37 Wind: 339º @ 002 Knots Heading: 197º
08:37 POS N41º 53´ 39´´ E002º 45´ 29´´
08:37 Gear Up: 178 Knots
08:37 Flaps:3 at 178 Knots
08:37 Flaps:2 at 184 Knots
08:37 Flaps:1 at 170 Knots
08:37 Flaps:0 at 168 Knots
08:43 TOC
08:43 Fuel Weight:9451 Lb
08:52 Wind:315º@039 Knots Heading: 263º Ground Speed: 358 Knots Altitude 19156 ft
09:07 Wind:323º@028 Knots Heading: 200º Ground Speed: 398 Knots Altitude 19251 ft
09:19 TOD
09:19 Fuel Weight: 4511 Lb
09:22 Wind:321º@015 Knots Heading: 185º Ground Speed: 321 Knots Altitude 14396 ft
09:37 Wind:074º@001 Knots Heading: 219º Ground Speed: 240 Knots Altitude 2942 ft
09:38 Flaps:1 at 206 Knots
09:38 Flaps:3 at 201 Knots
09:39 Gear Down: 163 Knots
09:39 Flaps:4 at 161 Knots
09:40 Flaps:5 at 158 Knots
09:42 TouchDown:Rate -222 ft/min Speed: 125 Knots
09:42 Flaps:0 at 93 Knots
09:42 VATSIM:LELC 150900Z VRB01KT CAVOK 13/07 Q1021 NOSIG
09:42 Land
09:42 Wind:073º@001 Knots
09:42 Heading: 204º
09:42 Flight Duration: 01:05
09:42 Landing Weight: 136539 Lbs
09:42 POS N37º 46´ 27´´ W000º 48´ 46´´
09:45 Parking brakes on
09:45 Block to Block Duration: 01:11
09:45 Final Fuel: 2231 Lbls
09:45 Spent Fuel: 10081 Lbls
09:45 Flight Length: 355 NM
09:45 TOD Land Length: 97 NM

Exportar CSV

Powered by Drupal - Modified by Danger4k